sensor_id;sensor_type;location;lat;lon;timestamp;P1;durP1;ratioP1;P2;durP2;ratioP2
39300;SDS011;25019;42.626;23.380;2022-08-21T00:00:52;19.97;;;12.93;;
39300;SDS011;25019;42.626;23.380;2022-08-21T00:03:18;25.03;;;15.60;;
39300;SDS011;25019;42.626;23.380;2022-08-21T00:05:45;22.20;;;14.77;;
39300;SDS011;25019;42.626;23.380;2022-08-21T00:08:14;24.23;;;14.87;;
39300;SDS011;25019;42.626;23.380;2022-08-21T00:10:40;27.93;;;17.23;;
39300;SDS011;25019;42.626;23.380;2022-08-21T00:13:06;28.20;;;17.33;;
39300;SDS011;25019;42.626;23.380;2022-08-21T00:15:33;32.00;;;17.67;;
39300;SDS011;25019;42.626;23.380;2022-08-21T00:18:00;24.53;;;15.73;;
39300;SDS011;25019;42.626;23.380;2022-08-21T00:20:26;23.67;;;16.40;;
39300;SDS011;25019;42.626;23.380;2022-08-21T00:22:52;23.40;;;14.60;;
39300;SDS011;25019;42.626;23.380;2022-08-21T00:25:18;20.40;;;12.80;;
39300;SDS011;25019;42.626;23.380;2022-08-21T00:27:44;19.97;;;11.87;;
39300;SDS011;25019;42.626;23.380;2022-08-21T00:30:12;12.63;;;9.83;;
39300;SDS011;25019;42.626;23.380;2022-08-21T00:32:40;15.00;;;9.57;;
39300;SDS011;25019;42.626;23.380;2022-08-21T00:35:09;12.53;;;9.47;;
39300;SDS011;25019;42.626;23.380;2022-08-21T00:37:38;11.40;;;9.10;;
39300;SDS011;25019;42.626;23.380;2022-08-21T00:40:05;12.47;;;8.30;;
39300;SDS011;25019;42.626;23.380;2022-08-21T00:42:33;14.30;;;9.37;;
39300;SDS011;25019;42.626;23.380;2022-08-21T00:44:58;12.40;;;9.23;;
39300;SDS011;25019;42.626;23.380;2022-08-21T00:47:24;7.73;;;6.73;;
39300;SDS011;25019;42.626;23.380;2022-08-21T00:49:50;11.93;;;7.07;;
39300;SDS011;25019;42.626;23.380;2022-08-21T00:52:21;9.80;;;6.50;;
39300;SDS011;25019;42.626;23.380;2022-08-21T00:54:50;12.53;;;8.60;;
39300;SDS011;25019;42.626;23.380;2022-08-21T00:57:18;13.97;;;11.03;;
39300;SDS011;25019;42.626;23.380;2022-08-21T00:59:47;15.20;;;11.03;;
39300;SDS011;25019;42.626;23.380;2022-08-21T01:02:16;16.63;;;11.83;;
39300;SDS011;25019;42.626;23.380;2022-08-21T01:04:43;17.43;;;11.80;;
39300;SDS011;25019;42.626;23.380;2022-08-21T01:07:10;18.67;;;12.93;;
39300;SDS011;25019;42.626;23.380;2022-08-21T01:09:35;18.13;;;13.37;;
39300;SDS011;25019;42.626;23.380;2022-08-21T01:12:03;19.07;;;12.90;;
39300;SDS011;25019;42.626;23.380;2022-08-21T01:14:29;20.47;;;13.03;;
39300;SDS011;25019;42.626;23.380;2022-08-21T01:16:55;21.33;;;13.03;;
39300;SDS011;25019;42.626;23.380;2022-08-21T01:19:23;24.20;;;13.53;;
39300;SDS011;25019;42.626;23.380;2022-08-21T01:21:50;18.87;;;13.53;;
39300;SDS011;25019;42.626;23.380;2022-08-21T01:24:16;22.00;;;14.73;;
39300;SDS011;25019;42.626;23.380;2022-08-21T01:26:42;25.13;;;15.27;;
39300;SDS011;25019;42.626;23.380;2022-08-21T01:29:11;26.10;;;15.80;;
39300;SDS011;25019;42.626;23.380;2022-08-21T01:31:45;21.53;;;14.67;;
39300;SDS011;25019;42.626;23.380;2022-08-21T01:34:11;25.30;;;14.77;;
39300;SDS011;25019;42.626;23.380;2022-08-21T01:36:37;24.57;;;15.27;;
39300;SDS011;25019;42.626;23.380;2022-08-21T01:39:03;24.70;;;15.63;;
39300;SDS011;25019;42.626;23.380;2022-08-21T01:41:30;26.93;;;16.87;;
39300;SDS011;25019;42.626;23.380;2022-08-21T01:43:56;27.33;;;16.47;;
39300;SDS011;25019;42.626;23.380;2022-08-21T01:46:21;28.97;;;17.40;;
39300;SDS011;25019;42.626;23.380;2022-08-21T01:48:48;28.83;;;16.43;;
39300;SDS011;25019;42.626;23.380;2022-08-21T01:51:14;27.60;;;16.53;;
39300;SDS011;25019;42.626;23.380;2022-08-21T01:53:39;28.03;;;17.10;;
39300;SDS011;25019;42.626;23.380;2022-08-21T01:56:09;29.73;;;16.70;;
39300;SDS011;25019;42.626;23.380;2022-08-21T01:58:37;27.73;;;15.50;;
39300;SDS011;25019;42.626;23.380;2022-08-21T02:01:03;27.67;;;15.30;;
39300;SDS011;25019;42.626;23.380;2022-08-21T02:03:29;23.30;;;14.50;;
39300;SDS011;25019;42.626;23.380;2022-08-21T02:05:55;21.63;;;14.60;;
39300;SDS011;25019;42.626;23.380;2022-08-21T02:08:22;21.30;;;13.63;;
39300;SDS011;25019;42.626;23.380;2022-08-21T02:10:49;25.30;;;15.10;;
39300;SDS011;25019;42.626;23.380;2022-08-21T02:13:16;22.13;;;14.07;;
39300;SDS011;25019;42.626;23.380;2022-08-21T02:15:42;21.10;;;13.73;;
39300;SDS011;25019;42.626;23.380;2022-08-21T02:18:07;20.40;;;13.60;;
39300;SDS011;25019;42.626;23.380;2022-08-21T02:20:34;19.50;;;12.93;;
39300;SDS011;25019;42.626;23.380;2022-08-21T02:23:02;21.70;;;13.60;;
39300;SDS011;25019;42.626;23.380;2022-08-21T02:25:29;17.70;;;12.20;;
39300;SDS011;25019;42.626;23.380;2022-08-21T02:27:55;18.47;;;12.23;;
39300;SDS011;25019;42.626;23.380;2022-08-21T02:30:26;18.40;;;12.67;;
39300;SDS011;25019;42.626;23.380;2022-08-21T02:32:53;18.77;;;11.57;;
39300;SDS011;25019;42.626;23.380;2022-08-21T02:35:20;17.90;;;11.43;;
39300;SDS011;25019;42.626;23.380;2022-08-21T02:37:51;14.53;;;10.00;;
39300;SDS011;25019;42.626;23.380;2022-08-21T02:40:20;15.30;;;10.23;;
39300;SDS011;25019;42.626;23.380;2022-08-21T02:42:48;9.20;;;7.80;;
39300;SDS011;25019;42.626;23.380;2022-08-21T02:45:14;13.80;;;8.90;;
39300;SDS011;25019;42.626;23.380;2022-08-21T02:47:40;9.67;;;7.23;;
39300;SDS011;25019;42.626;23.380;2022-08-21T02:50:12;11.30;;;6.90;;
39300;SDS011;25019;42.626;23.380;2022-08-21T02:52:38;11.23;;;7.47;;
39300;SDS011;25019;42.626;23.380;2022-08-21T02:55:03;7.47;;;5.00;;
39300;SDS011;25019;42.626;23.380;2022-08-21T02:57:30;9.73;;;5.97;;
39300;SDS011;25019;42.626;23.380;2022-08-21T02:59:57;8.03;;;5.80;;
39300;SDS011;25019;42.626;23.380;2022-08-21T03:02:23;10.90;;;5.90;;
39300;SDS011;25019;42.626;23.380;2022-08-21T03:04:49;10.10;;;6.07;;
39300;SDS011;25019;42.626;23.380;2022-08-21T03:07:15;10.07;;;6.03;;
39300;SDS011;25019;42.626;23.380;2022-08-21T03:09:41;8.93;;;5.20;;
39300;SDS011;25019;42.626;23.380;2022-08-21T03:12:06;7.87;;;5.47;;
39300;SDS011;25019;42.626;23.380;2022-08-21T03:14:32;9.23;;;5.10;;
39300;SDS011;25019;42.626;23.380;2022-08-21T03:16:57;7.63;;;5.50;;
39300;SDS011;25019;42.626;23.380;2022-08-21T03:19:23;9.87;;;5.33;;
39300;SDS011;25019;42.626;23.380;2022-08-21T03:21:49;9.83;;;5.17;;
39300;SDS011;25019;42.626;23.380;2022-08-21T03:24:14;7.83;;;5.47;;
39300;SDS011;25019;42.626;23.380;2022-08-21T03:26:40;7.07;;;5.67;;
39300;SDS011;25019;42.626;23.380;2022-08-21T03:29:05;8.37;;;5.63;;
39300;SDS011;25019;42.626;23.380;2022-08-21T03:31:32;7.03;;;5.17;;
39300;SDS011;25019;42.626;23.380;2022-08-21T03:33:58;13.60;;;5.70;;
39300;SDS011;25019;42.626;23.380;2022-08-21T03:36:24;7.53;;;4.93;;
39300;SDS011;25019;42.626;23.380;2022-08-21T03:38:50;8.33;;;4.63;;
39300;SDS011;25019;42.626;23.380;2022-08-21T03:41:16;8.80;;;4.80;;
39300;SDS011;25019;42.626;23.380;2022-08-21T03:43:41;6.50;;;4.67;;
39300;SDS011;25019;42.626;23.380;2022-08-21T03:46:07;9.33;;;4.77;;
39300;SDS011;25019;42.626;23.380;2022-08-21T03:48:33;6.67;;;4.83;;
39300;SDS011;25019;42.626;23.380;2022-08-21T03:51:00;8.83;;;5.53;;
39300;SDS011;25019;42.626;23.380;2022-08-21T03:53:27;7.10;;;5.27;;
39300;SDS011;25019;42.626;23.380;2022-08-21T03:55:52;10.17;;;6.43;;
39300;SDS011;25019;42.626;23.380;2022-08-21T03:58:19;8.63;;;6.83;;
39300;SDS011;25019;42.626;23.380;2022-08-21T04:00:49;10.53;;;7.47;;
39300;SDS011;25019;42.626;23.380;2022-08-21T04:03:17;14.90;;;9.00;;
39300;SDS011;25019;42.626;23.380;2022-08-21T04:05:43;11.57;;;9.33;;
39300;SDS011;25019;42.626;23.380;2022-08-21T04:08:10;16.70;;;9.57;;
39300;SDS011;25019;42.626;23.380;2022-08-21T04:10:37;16.20;;;9.67;;
39300;SDS011;25019;42.626;23.380;2022-08-21T04:13:05;12.47;;;9.00;;
39300;SDS011;25019;42.626;23.380;2022-08-21T04:15:32;12.17;;;8.90;;
39300;SDS011;25019;42.626;23.380;2022-08-21T04:17:58;16.87;;;9.43;;
39300;SDS011;25019;42.626;23.380;2022-08-21T04:20:24;13.37;;;8.77;;
39300;SDS011;25019;42.626;23.380;2022-08-21T04:22:50;12.67;;;8.63;;
39300;SDS011;25019;42.626;23.380;2022-08-21T04:25:17;9.13;;;7.13;;
39300;SDS011;25019;42.626;23.380;2022-08-21T04:27:45;8.90;;;6.70;;
39300;SDS011;25019;42.626;23.380;2022-08-21T04:30:11;10.37;;;6.73;;
39300;SDS011;25019;42.626;23.380;2022-08-21T04:32:37;7.50;;;5.43;;
39300;SDS011;25019;42.626;23.380;2022-08-21T04:35:05;7.53;;;5.97;;
39300;SDS011;25019;42.626;23.380;2022-08-21T04:37:33;11.10;;;6.57;;
39300;SDS011;25019;42.626;23.380;2022-08-21T04:39:59;10.00;;;6.00;;
39300;SDS011;25019;42.626;23.380;2022-08-21T04:42:25;9.00;;;5.93;;
39300;SDS011;25019;42.626;23.380;2022-08-21T04:44:51;11.67;;;5.90;;
39300;SDS011;25019;42.626;23.380;2022-08-21T04:47:17;8.40;;;5.40;;
39300;SDS011;25019;42.626;23.380;2022-08-21T04:49:43;7.83;;;5.10;;
39300;SDS011;25019;42.626;23.380;2022-08-21T04:52:10;8.33;;;4.53;;
39300;SDS011;25019;42.626;23.380;2022-08-21T04:54:38;7.20;;;4.73;;
39300;SDS011;25019;42.626;23.380;2022-08-21T04:57:06;10.13;;;5.00;;
39300;SDS011;25019;42.626;23.380;2022-08-21T04:59:39;6.80;;;3.93;;
39300;SDS011;25019;42.626;23.380;2022-08-21T05:02:08;9.00;;;4.43;;
39300;SDS011;25019;42.626;23.380;2022-08-21T05:04:36;8.00;;;4.27;;
39300;SDS011;25019;42.626;23.380;2022-08-21T05:07:10;7.57;;;4.00;;
39300;SDS011;25019;42.626;23.380;2022-08-21T05:09:40;5.53;;;3.90;;
39300;SDS011;25019;42.626;23.380;2022-08-21T05:12:06;6.93;;;3.60;;
39300;SDS011;25019;42.626;23.380;2022-08-21T05:14:32;9.60;;;4.53;;
39300;SDS011;25019;42.626;23.380;2022-08-21T05:16:58;9.40;;;5.43;;
39300;SDS011;25019;42.626;23.380;2022-08-21T05:19:24;10.17;;;6.10;;
39300;SDS011;25019;42.626;23.380;2022-08-21T05:21:51;10.63;;;5.70;;
39300;SDS011;25019;42.626;23.380;2022-08-21T05:24:16;10.13;;;5.57;;
39300;SDS011;25019;42.626;23.380;2022-08-21T05:26:43;9.57;;;5.50;;
39300;SDS011;25019;42.626;23.380;2022-08-21T05:29:09;8.07;;;5.90;;
39300;SDS011;25019;42.626;23.380;2022-08-21T05:31:36;7.63;;;4.80;;
39300;SDS011;25019;42.626;23.380;2022-08-21T05:34:02;7.40;;;4.90;;
39300;SDS011;25019;42.626;23.380;2022-08-21T05:36:28;7.63;;;4.40;;
39300;SDS011;25019;42.626;23.380;2022-08-21T05:38:54;6.33;;;3.73;;
39300;SDS011;25019;42.626;23.380;2022-08-21T05:41:20;9.47;;;4.07;;
39300;SDS011;25019;42.626;23.380;2022-08-21T05:43:45;4.93;;;3.10;;
39300;SDS011;25019;42.626;23.380;2022-08-21T05:46:11;8.53;;;3.33;;
39300;SDS011;25019;42.626;23.380;2022-08-21T05:48:37;5.40;;;2.70;;
39300;SDS011;25019;42.626;23.380;2022-08-21T05:51:07;5.40;;;3.03;;
39300;SDS011;25019;42.626;23.380;2022-08-21T05:53:34;3.97;;;2.83;;
39300;SDS011;25019;42.626;23.380;2022-08-21T05:56:00;5.00;;;2.43;;
39300;SDS011;25019;42.626;23.380;2022-08-21T05:58:29;7.10;;;2.93;;
39300;SDS011;25019;42.626;23.380;2022-08-21T06:00:55;2.60;;;2.40;;
39300;SDS011;25019;42.626;23.380;2022-08-21T06:03:23;3.90;;;2.97;;
39300;SDS011;25019;42.626;23.380;2022-08-21T06:05:51;6.00;;;3.00;;
39300;SDS011;25019;42.626;23.380;2022-08-21T06:08:18;7.03;;;3.27;;
39300;SDS011;25019;42.626;23.380;2022-08-21T06:10:45;9.00;;;3.53;;
39300;SDS011;25019;42.626;23.380;2022-08-21T06:13:12;10.07;;;5.50;;
39300;SDS011;25019;42.626;23.380;2022-08-21T06:15:38;10.37;;;6.97;;
39300;SDS011;25019;42.626;23.380;2022-08-21T06:18:04;8.07;;;6.57;;
39300;SDS011;25019;42.626;23.380;2022-08-21T06:20:29;9.23;;;6.30;;
39300;SDS011;25019;42.626;23.380;2022-08-21T06:22:55;10.83;;;5.93;;
39300;SDS011;25019;42.626;23.380;2022-08-21T06:25:21;6.50;;;5.27;;
39300;SDS011;25019;42.626;23.380;2022-08-21T06:27:46;7.57;;;6.07;;
39300;SDS011;25019;42.626;23.380;2022-08-21T06:30:12;8.77;;;4.63;;
39300;SDS011;25019;42.626;23.380;2022-08-21T06:32:38;6.70;;;3.73;;
39300;SDS011;25019;42.626;23.380;2022-08-21T06:35:05;8.83;;;5.63;;
39300;SDS011;25019;42.626;23.380;2022-08-21T06:37:31;8.50;;;5.93;;
39300;SDS011;25019;42.626;23.380;2022-08-21T06:39:57;7.17;;;4.77;;
39300;SDS011;25019;42.626;23.380;2022-08-21T06:42:22;7.33;;;4.87;;
39300;SDS011;25019;42.626;23.380;2022-08-21T06:44:48;9.40;;;4.43;;
39300;SDS011;25019;42.626;23.380;2022-08-21T06:47:14;7.07;;;4.10;;
39300;SDS011;25019;42.626;23.380;2022-08-21T06:49:40;6.03;;;4.90;;
39300;SDS011;25019;42.626;23.380;2022-08-21T06:52:10;6.77;;;4.80;;
39300;SDS011;25019;42.626;23.380;2022-08-21T06:54:37;8.77;;;5.23;;
39300;SDS011;25019;42.626;23.380;2022-08-21T06:57:03;8.10;;;4.87;;
39300;SDS011;25019;42.626;23.380;2022-08-21T06:59:29;6.30;;;4.50;;
39300;SDS011;25019;42.626;23.380;2022-08-21T07:01:55;8.50;;;4.50;;
39300;SDS011;25019;42.626;23.380;2022-08-21T07:04:21;6.63;;;4.07;;
39300;SDS011;25019;42.626;23.380;2022-08-21T07:06:46;5.80;;;3.50;;
39300;SDS011;25019;42.626;23.380;2022-08-21T07:09:12;8.20;;;3.67;;
39300;SDS011;25019;42.626;23.380;2022-08-21T07:11:37;8.73;;;5.13;;
39300;SDS011;25019;42.626;23.380;2022-08-21T07:14:03;11.47;;;5.97;;
39300;SDS011;25019;42.626;23.380;2022-08-21T07:16:29;9.30;;;5.47;;
39300;SDS011;25019;42.626;23.380;2022-08-21T07:18:55;8.43;;;6.43;;
39300;SDS011;25019;42.626;23.380;2022-08-21T07:21:21;9.80;;;5.83;;
39300;SDS011;25019;42.626;23.380;2022-08-21T07:23:47;11.03;;;6.63;;
39300;SDS011;25019;42.626;23.380;2022-08-21T07:26:15;10.20;;;6.20;;
39300;SDS011;25019;42.626;23.380;2022-08-21T07:28:42;7.00;;;5.20;;
39300;SDS011;25019;42.626;23.380;2022-08-21T07:31:08;10.10;;;6.17;;
39300;SDS011;25019;42.626;23.380;2022-08-21T07:33:39;8.90;;;6.40;;
39300;SDS011;25019;42.626;23.380;2022-08-21T07:36:05;9.67;;;5.60;;
39300;SDS011;25019;42.626;23.380;2022-08-21T07:38:31;11.13;;;6.13;;
39300;SDS011;25019;42.626;23.380;2022-08-21T07:40:57;7.87;;;5.57;;
39300;SDS011;25019;42.626;23.380;2022-08-21T07:43:25;10.13;;;7.10;;
39300;SDS011;25019;42.626;23.380;2022-08-21T07:45:52;7.40;;;6.00;;
39300;SDS011;25019;42.626;23.380;2022-08-21T07:48:19;9.97;;;5.73;;
39300;SDS011;25019;42.626;23.380;2022-08-21T07:50:45;10.53;;;6.60;;
39300;SDS011;25019;42.626;23.380;2022-08-21T07:53:11;11.40;;;5.93;;
39300;SDS011;25019;42.626;23.380;2022-08-21T07:55:36;9.67;;;6.00;;
39300;SDS011;25019;42.626;23.380;2022-08-21T07:58:02;9.63;;;6.00;;
39300;SDS011;25019;42.626;23.380;2022-08-21T08:00:28;8.53;;;5.67;;
39300;SDS011;25019;42.626;23.380;2022-08-21T08:02:54;8.13;;;6.13;;
39300;SDS011;25019;42.626;23.380;2022-08-21T08:05:22;9.73;;;6.03;;
39300;SDS011;25019;42.626;23.380;2022-08-21T08:07:49;9.10;;;6.43;;
39300;SDS011;25019;42.626;23.380;2022-08-21T08:10:15;10.17;;;6.27;;
39300;SDS011;25019;42.626;23.380;2022-08-21T08:12:41;7.53;;;5.53;;
39300;SDS011;25019;42.626;23.380;2022-08-21T08:15:09;10.13;;;6.07;;
39300;SDS011;25019;42.626;23.380;2022-08-21T08:17:37;9.90;;;5.80;;
39300;SDS011;25019;42.626;23.380;2022-08-21T08:20:04;8.93;;;6.13;;
39300;SDS011;25019;42.626;23.380;2022-08-21T08:22:31;7.60;;;5.27;;
39300;SDS011;25019;42.626;23.380;2022-08-21T08:25:00;9.80;;;5.97;;
39300;SDS011;25019;42.626;23.380;2022-08-21T08:27:25;6.97;;;5.47;;
39300;SDS011;25019;42.626;23.380;2022-08-21T08:29:51;8.03;;;5.30;;
39300;SDS011;25019;42.626;23.380;2022-08-21T08:32:17;6.50;;;5.67;;
39300;SDS011;25019;42.626;23.380;2022-08-21T08:34:42;7.37;;;6.13;;
39300;SDS011;25019;42.626;23.380;2022-08-21T08:37:09;11.60;;;6.63;;
39300;SDS011;25019;42.626;23.380;2022-08-21T08:39:35;10.33;;;5.93;;
39300;SDS011;25019;42.626;23.380;2022-08-21T08:42:04;7.47;;;5.73;;
39300;SDS011;25019;42.626;23.380;2022-08-21T08:44:30;9.30;;;6.00;;
39300;SDS011;25019;42.626;23.380;2022-08-21T08:46:56;9.80;;;6.40;;
39300;SDS011;25019;42.626;23.380;2022-08-21T08:49:24;7.93;;;5.90;;
39300;SDS011;25019;42.626;23.380;2022-08-21T08:54:28;8.50;;;5.67;;
39300;SDS011;25019;42.626;23.380;2022-08-21T08:56:59;9.87;;;5.43;;
39300;SDS011;25019;42.626;23.380;2022-08-21T08:59:27;9.13;;;6.30;;
39300;SDS011;25019;42.626;23.380;2022-08-21T09:02:03;9.20;;;5.83;;
39300;SDS011;25019;42.626;23.380;2022-08-21T09:04:30;7.40;;;5.47;;
39300;SDS011;25019;42.626;23.380;2022-08-21T09:06:59;11.20;;;6.47;;
39300;SDS011;25019;42.626;23.380;2022-08-21T09:12:14;7.50;;;5.83;;
39300;SDS011;25019;42.626;23.380;2022-08-21T09:14:53;7.20;;;6.50;;
39300;SDS011;25019;42.626;23.380;2022-08-21T09:20:23;9.50;;;5.70;;
39300;SDS011;25019;42.626;23.380;2022-08-21T09:28:39;8.40;;;5.67;;
39300;SDS011;25019;42.626;23.380;2022-08-21T09:31:07;8.90;;;5.50;;
39300;SDS011;25019;42.626;23.380;2022-08-21T09:33:39;6.70;;;5.03;;
39300;SDS011;25019;42.626;23.380;2022-08-21T09:36:05;8.93;;;5.43;;
39300;SDS011;25019;42.626;23.380;2022-08-21T09:38:35;7.07;;;4.70;;
39300;SDS011;25019;42.626;23.380;2022-08-21T09:41:09;8.30;;;5.07;;
39300;SDS011;25019;42.626;23.380;2022-08-21T09:43:36;8.93;;;4.80;;
39300;SDS011;25019;42.626;23.380;2022-08-21T09:46:19;8.70;;;6.03;;
39300;SDS011;25019;42.626;23.380;2022-08-21T09:48:47;10.07;;;6.03;;
39300;SDS011;25019;42.626;23.380;2022-08-21T09:51:16;8.07;;;4.93;;
39300;SDS011;25019;42.626;23.380;2022-08-21T09:53:48;7.93;;;4.90;;
39300;SDS011;25019;42.626;23.380;2022-08-21T09:59:17;8.23;;;4.90;;
39300;SDS011;25019;42.626;23.380;2022-08-21T10:01:46;8.10;;;4.83;;
39300;SDS011;25019;42.626;23.380;2022-08-21T10:04:14;7.63;;;4.80;;
39300;SDS011;25019;42.626;23.380;2022-08-21T10:06:44;9.03;;;4.60;;
39300;SDS011;25019;42.626;23.380;2022-08-21T10:09:11;7.67;;;4.70;;
39300;SDS011;25019;42.626;23.380;2022-08-21T10:11:39;7.33;;;4.63;;
39300;SDS011;25019;42.626;23.380;2022-08-21T10:14:13;9.53;;;4.90;;
39300;SDS011;25019;42.626;23.380;2022-08-21T10:20:23;9.90;;;4.87;;
39300;SDS011;25019;42.626;23.380;2022-08-21T10:25:23;8.00;;;4.97;;
39300;SDS011;25019;42.626;23.380;2022-08-21T10:36:14;7.83;;;4.73;;
39300;SDS011;25019;42.626;23.380;2022-08-21T10:38:52;7.13;;;4.87;;
39300;SDS011;25019;42.626;23.380;2022-08-21T10:41:28;8.80;;;4.77;;
39300;SDS011;25019;42.626;23.380;2022-08-21T10:46:41;4.63;;;4.23;;
39300;SDS011;25019;42.626;23.380;2022-08-21T11:00:07;9.70;;;4.63;;
39300;SDS011;25019;42.626;23.380;2022-08-21T11:02:39;6.40;;;4.00;;
39300;SDS011;25019;42.626;23.380;2022-08-21T11:07:54;7.33;;;4.30;;
39300;SDS011;25019;42.626;23.380;2022-08-21T11:10:28;6.63;;;4.60;;
39300;SDS011;25019;42.626;23.380;2022-08-21T11:13:04;6.63;;;4.00;;
39300;SDS011;25019;42.626;23.380;2022-08-21T11:15:38;9.90;;;4.43;;
39300;SDS011;25019;42.626;23.380;2022-08-21T11:29:18;6.03;;;4.57;;
39300;SDS011;25019;42.626;23.380;2022-08-21T11:37:48;6.43;;;4.10;;
39300;SDS011;25019;42.626;23.380;2022-08-21T11:43:34;7.47;;;4.20;;
39300;SDS011;25019;42.626;23.380;2022-08-21T11:46:18;7.17;;;4.50;;
39300;SDS011;25019;42.626;23.380;2022-08-21T11:48:59;8.33;;;4.93;;
39300;SDS011;25019;42.626;23.380;2022-08-21T11:52:05;8.57;;;4.47;;
39300;SDS011;25019;42.626;23.380;2022-08-21T11:54:44;6.33;;;4.33;;
39300;SDS011;25019;42.626;23.380;2022-08-21T11:57:39;6.53;;;4.90;;
39300;SDS011;25019;42.626;23.380;2022-08-21T12:00:09;11.10;;;4.17;;
39300;SDS011;25019;42.626;23.380;2022-08-21T12:02:48;6.40;;;4.60;;
39300;SDS011;25019;42.626;23.380;2022-08-21T12:05:30;6.07;;;4.10;;
39300;SDS011;25019;42.626;23.380;2022-08-21T12:08:02;6.17;;;4.40;;
39300;SDS011;25019;42.626;23.380;2022-08-21T12:10:35;6.93;;;4.07;;
39300;SDS011;25019;42.626;23.380;2022-08-21T12:13:28;6.07;;;4.37;;
39300;SDS011;25019;42.626;23.380;2022-08-21T12:16:09;7.17;;;4.07;;
39300;SDS011;25019;42.626;23.380;2022-08-21T12:18:37;8.03;;;4.60;;
39300;SDS011;25019;42.626;23.380;2022-08-21T12:21:20;7.30;;;4.40;;
39300;SDS011;25019;42.626;23.380;2022-08-21T12:23:48;6.63;;;4.30;;
39300;SDS011;25019;42.626;23.380;2022-08-21T12:31:50;7.07;;;4.63;;
39300;SDS011;25019;42.626;23.380;2022-08-21T12:34:19;7.67;;;4.07;;
39300;SDS011;25019;42.626;23.380;2022-08-21T12:36:49;8.07;;;3.93;;
39300;SDS011;25019;42.626;23.380;2022-08-21T12:39:25;10.00;;;4.67;;
39300;SDS011;25019;42.626;23.380;2022-08-21T12:44:35;5.90;;;4.20;;
39300;SDS011;25019;42.626;23.380;2022-08-21T12:47:11;7.10;;;4.47;;
39300;SDS011;25019;42.626;23.380;2022-08-21T12:49:50;7.87;;;4.50;;
39300;SDS011;25019;42.626;23.380;2022-08-21T12:52:24;7.97;;;4.67;;
39300;SDS011;25019;42.626;23.380;2022-08-21T12:54:55;8.00;;;4.33;;
39300;SDS011;25019;42.626;23.380;2022-08-21T12:57:23;9.70;;;4.80;;
39300;SDS011;25019;42.626;23.380;2022-08-21T12:59:57;6.83;;;4.33;;
39300;SDS011;25019;42.626;23.380;2022-08-21T13:02:29;6.10;;;4.60;;
39300;SDS011;25019;42.626;23.380;2022-08-21T13:04:58;4.90;;;4.27;;
39300;SDS011;25019;42.626;23.380;2022-08-21T13:07:29;7.13;;;4.47;;
39300;SDS011;25019;42.626;23.380;2022-08-21T13:12:30;6.27;;;5.00;;
39300;SDS011;25019;42.626;23.380;2022-08-21T13:14:58;12.00;;;5.53;;
39300;SDS011;25019;42.626;23.380;2022-08-21T13:17:30;6.47;;;4.67;;
39300;SDS011;25019;42.626;23.380;2022-08-21T13:20:00;9.17;;;5.20;;
39300;SDS011;25019;42.626;23.380;2022-08-21T13:22:31;7.27;;;4.87;;
39300;SDS011;25019;42.626;23.380;2022-08-21T13:24:57;10.03;;;5.07;;
39300;SDS011;25019;42.626;23.380;2022-08-21T13:27:24;7.87;;;5.00;;
39300;SDS011;25019;42.626;23.380;2022-08-21T13:32:26;7.80;;;5.27;;
39300;SDS011;25019;42.626;23.380;2022-08-21T13:34:56;10.07;;;5.60;;
39300;SDS011;25019;42.626;23.380;2022-08-21T13:37:22;6.20;;;4.70;;
39300;SDS011;25019;42.626;23.380;2022-08-21T13:39:51;6.80;;;4.90;;
39300;SDS011;25019;42.626;23.380;2022-08-21T13:42:17;6.43;;;5.33;;
39300;SDS011;25019;42.626;23.380;2022-08-21T13:44:46;8.43;;;5.33;;
39300;SDS011;25019;42.626;23.380;2022-08-21T13:47:13;7.63;;;5.10;;
39300;SDS011;25019;42.626;23.380;2022-08-21T13:49:42;5.90;;;5.23;;
39300;SDS011;25019;42.626;23.380;2022-08-21T13:52:20;10.73;;;5.40;;
39300;SDS011;25019;42.626;23.380;2022-08-21T13:54:58;7.37;;;5.80;;
39300;SDS011;25019;42.626;23.380;2022-08-21T13:57:34;9.90;;;5.53;;
39300;SDS011;25019;42.626;23.380;2022-08-21T14:00:12;7.43;;;5.90;;
39300;SDS011;25019;42.626;23.380;2022-08-21T14:02:43;7.43;;;5.03;;
39300;SDS011;25019;42.626;23.380;2022-08-21T14:05:21;7.87;;;5.50;;
39300;SDS011;25019;42.626;23.380;2022-08-21T14:07:50;10.87;;;5.70;;
39300;SDS011;25019;42.626;23.380;2022-08-21T14:10:26;9.17;;;5.77;;
39300;SDS011;25019;42.626;23.380;2022-08-21T14:15:28;9.50;;;5.73;;
39300;SDS011;25019;42.626;23.380;2022-08-21T14:18:06;8.53;;;5.50;;
39300;SDS011;25019;42.626;23.380;2022-08-21T14:20:42;9.93;;;5.20;;
39300;SDS011;25019;42.626;23.380;2022-08-21T14:23:10;9.17;;;5.77;;
39300;SDS011;25019;42.626;23.380;2022-08-21T14:25:38;5.97;;;5.37;;
39300;SDS011;25019;42.626;23.380;2022-08-21T14:30:45;8.37;;;5.33;;
39300;SDS011;25019;42.626;23.380;2022-08-21T14:33:12;7.20;;;5.20;;
39300;SDS011;25019;42.626;23.380;2022-08-21T14:35:43;10.30;;;5.07;;
39300;SDS011;25019;42.626;23.380;2022-08-21T14:38:16;6.27;;;5.20;;
39300;SDS011;25019;42.626;23.380;2022-08-21T14:40:45;7.20;;;5.20;;
39300;SDS011;25019;42.626;23.380;2022-08-21T14:43:13;8.73;;;5.47;;
39300;SDS011;25019;42.626;23.380;2022-08-21T14:45:39;7.23;;;5.00;;
39300;SDS011;25019;42.626;23.380;2022-08-21T14:48:06;6.57;;;4.90;;
39300;SDS011;25019;42.626;23.380;2022-08-21T14:50:32;7.93;;;4.93;;
39300;SDS011;25019;42.626;23.380;2022-08-21T14:52:58;7.33;;;5.20;;
39300;SDS011;25019;42.626;23.380;2022-08-21T14:55:24;6.17;;;5.40;;
39300;SDS011;25019;42.626;23.380;2022-08-21T14:57:51;9.40;;;6.20;;
39300;SDS011;25019;42.626;23.380;2022-08-21T15:00:19;8.37;;;5.87;;
39300;SDS011;25019;42.626;23.380;2022-08-21T15:02:48;8.23;;;5.60;;
39300;SDS011;25019;42.626;23.380;2022-08-21T15:05:14;6.90;;;4.97;;
39300;SDS011;25019;42.626;23.380;2022-08-21T15:07:41;8.43;;;5.10;;
39300;SDS011;25019;42.626;23.380;2022-08-21T15:10:07;4.70;;;4.30;;
39300;SDS011;25019;42.626;23.380;2022-08-21T15:12:33;9.47;;;4.97;;
39300;SDS011;25019;42.626;23.380;2022-08-21T15:14:58;7.00;;;5.00;;
39300;SDS011;25019;42.626;23.380;2022-08-21T15:17:25;5.97;;;4.53;;
39300;SDS011;25019;42.626;23.380;2022-08-21T15:19:50;8.70;;;5.17;;
39300;SDS011;25019;42.626;23.380;2022-08-21T15:22:16;8.77;;;5.17;;
39300;SDS011;25019;42.626;23.380;2022-08-21T15:24:42;7.53;;;5.00;;
39300;SDS011;25019;42.626;23.380;2022-08-21T15:27:08;7.23;;;4.80;;
39300;SDS011;25019;42.626;23.380;2022-08-21T15:29:35;7.03;;;4.90;;
39300;SDS011;25019;42.626;23.380;2022-08-21T15:32:21;9.13;;;5.10;;
39300;SDS011;25019;42.626;23.380;2022-08-21T15:34:52;7.83;;;5.10;;
39300;SDS011;25019;42.626;23.380;2022-08-21T15:37:18;11.97;;;5.43;;
39300;SDS011;25019;42.626;23.380;2022-08-21T15:39:45;5.90;;;5.07;;
39300;SDS011;25019;42.626;23.380;2022-08-21T15:42:11;7.90;;;4.53;;
39300;SDS011;25019;42.626;23.380;2022-08-21T15:44:38;8.07;;;5.37;;
39300;SDS011;25019;42.626;23.380;2022-08-21T15:47:05;5.60;;;4.90;;
39300;SDS011;25019;42.626;23.380;2022-08-21T15:49:32;9.77;;;5.10;;
39300;SDS011;25019;42.626;23.380;2022-08-21T15:51:58;5.90;;;5.10;;
39300;SDS011;25019;42.626;23.380;2022-08-21T15:54:23;8.80;;;5.23;;
39300;SDS011;25019;42.626;23.380;2022-08-21T15:56:49;6.77;;;5.20;;
39300;SDS011;25019;42.626;23.380;2022-08-21T15:59:18;9.30;;;5.53;;
39300;SDS011;25019;42.626;23.380;2022-08-21T16:01:47;9.00;;;5.70;;